Weather History for Windom, MN

Change the Weather History Date:

Sunday, June 16, 2013

  Actual Average Record
Temperature  
Mean Temperature 70 °F -  
Max Temperature 84 °F 78 °F 98 °F (1959)
Min Temperature 55 °F 54 °F 43 °F (1961)
Cooling Degree Days 4    
Growing Degree Days 20 (Base 50)    
Moisture  
Dew Point 51 °F    
Average Humidity 52    
Maximum Humidity 88    
Minimum Humidity 23    
Precipitation  
Precipitation 0.00 in - - ()
Sea Level Pressure  
Sea Level Pressure 29.96 in    
Wind  
Wind Speed 4 mph (West)    
Max Wind Speed 15 mph    
Max Gust Speed 23 mph    
Visibility 10 miles    
Events      
Averages and records for this station are not official NWS values.
T = Trace of Precipitation, MM = Missing Value Source: NWS Daily Summary

Daily Weather History Graph

Daily Weather History Graph

Search for Another Location

Airport:

Trip Planner

Search our weather history database for the weather conditions in past years. The results will help you decide how hot, cold, wet, or windy it might be!

Date:

Astronomy

Jun. 16, 2013 Rise Set
Actual Time 5:37 AM CDT 9:05 PM CDT
Civil Twilight 5:01 AM CDT 9:41 PM CDT
Nautical Twilight 4:13 AM CDT 10:29 PM CDT
Astronomical Twilight 3:13 AM CDT 11:29 PM CDT
Moon 1:29 PM CDT (6/16) 12:56 AM CDT (6/16)
Length of Visible Light 16h 40m
Length of Day
15h 27m
Waxing Crescent, 50% of the Moon is Illuminated
Jun 16
Waxing Crescent
Jun 16
First Quarter
Jun 23
Full
Jun 29
Last Quarter
Jul 8
New

Hourly Weather History & Observations

Time (CDT) Temp. Dew Point Humidity Pressure Visibility Wind Dir Wind Speed Gust Speed Precip Events Conditions
12:13 AM 62.6 °F 57.2 °F 82% 29.95 in 10.0 mi Calm Calm - N/A   Clear
12:32 AM 64.4 °F 57.2 °F 77% 29.95 in 10.0 mi Calm Calm - N/A   Clear
12:52 AM 62.6 °F 57.2 °F 82% 29.95 in 10.0 mi Calm Calm - N/A   Clear
1:13 AM 60.8 °F 55.4 °F 82% 29.96 in 10.0 mi Calm Calm - N/A   Clear
1:32 AM 60.8 °F 57.2 °F 88% 29.95 in 10.0 mi Calm Calm - N/A   Clear
1:52 AM 60.8 °F 55.4 °F 82% 29.95 in 10.0 mi Calm Calm - N/A   Clear
2:12 AM 60.8 °F 55.4 °F 82% 29.95 in 10.0 mi Calm Calm - N/A   Clear
2:32 AM 60.8 °F 53.6 °F 77% 29.95 in 10.0 mi Calm Calm - N/A   Clear
2:53 AM 60.8 °F 53.6 °F 77% 29.96 in 10.0 mi Calm Calm - N/A   Clear
3:12 AM 57.2 °F 53.6 °F 88% 29.95 in 10.0 mi Calm Calm - N/A   Clear
3:32 AM 59.0 °F 53.6 °F 82% 29.96 in 10.0 mi Calm Calm - N/A   Clear
3:53 AM 59.0 °F 51.8 °F 77% 29.97 in 10.0 mi Calm Calm - N/A   Clear
4:12 AM 57.2 °F 51.8 °F 82% 29.96 in 10.0 mi Calm Calm - N/A   Clear
4:32 AM 55.4 °F 51.8 °F 88% 29.96 in 10.0 mi West 3.5 mph - N/A   Clear
4:53 AM 55.4 °F 51.8 °F 88% 29.96 in 10.0 mi West 3.5 mph - N/A   Clear
5:12 AM 55.4 °F 51.8 °F 88% 29.97 in 10.0 mi Calm Calm - N/A   Clear
5:32 AM 57.2 °F 51.8 °F 82% 29.97 in 10.0 mi Calm Calm - N/A   Clear
5:53 AM 57.2 °F 51.8 °F 82% 29.98 in 10.0 mi Calm Calm - N/A   Clear
6:12 AM 59.0 °F 51.8 °F 77% 29.98 in 10.0 mi Calm Calm - N/A   Clear
6:32 AM 57.2 °F 51.8 °F 82% 29.99 in 10.0 mi Calm Calm - N/A   Clear
6:53 AM 59.0 °F 53.6 °F 82% 29.98 in 10.0 mi Calm Calm - N/A   Clear
7:12 AM 62.6 °F 53.6 °F 72% 29.98 in 10.0 mi Calm Calm - N/A   Clear
7:33 AM 62.6 °F 53.6 °F 72% 29.98 in 10.0 mi Calm Calm - N/A   Clear
7:53 AM 64.4 °F 55.4 °F 73% 29.98 in 10.0 mi Calm Calm - N/A   Clear
8:12 AM 66.2 °F 53.6 °F 64% 29.98 in 10.0 mi Calm Calm - N/A   Clear
8:33 AM 69.8 °F 55.4 °F 60% 29.98 in 10.0 mi Calm Calm - N/A   Clear
8:53 AM 71.6 °F 55.4 °F 57% 29.99 in 10.0 mi West 4.6 mph - N/A   Clear
9:12 AM 73.4 °F 55.4 °F 53% 29.99 in 10.0 mi West 5.8 mph - N/A   Clear
9:33 AM 73.4 °F 55.4 °F 53% 29.99 in 10.0 mi West 5.8 mph - N/A   Clear
9:53 AM 75.2 °F 55.4 °F 50% 29.99 in 10.0 mi West 3.5 mph - N/A   Clear
10:12 AM 77.0 °F 51.8 °F 41% 29.98 in 10.0 mi West 9.2 mph - N/A   Clear
10:33 AM 78.8 °F 51.8 °F 39% 29.98 in 10.0 mi WNW 10.4 mph - N/A   Clear
10:53 AM 78.8 °F 51.8 °F 39% 29.98 in 10.0 mi West 11.5 mph 16.1 mph N/A   Clear
11:12 AM 78.8 °F 48.2 °F 34% 29.97 in 10.0 mi WNW 9.2 mph - N/A   Clear
11:33 AM 80.6 °F 48.2 °F 32% 29.97 in 10.0 mi NW 12.7 mph - N/A   Clear
11:53 AM 80.6 °F 48.2 °F 32% 29.97 in 10.0 mi West 11.5 mph 21.9 mph N/A   Clear
12:12 PM 80.6 °F 48.2 °F 32% 29.97 in 10.0 mi West 8.1 mph - N/A   Clear
12:32 PM 82.4 °F 48.2 °F 30% 29.97 in 10.0 mi West 9.2 mph 18.4 mph N/A   Clear
12:53 PM 82.4 °F 46.4 °F 28% 29.97 in 10.0 mi NW 5.8 mph 19.6 mph N/A   Clear
1:12 PM 82.4 °F 46.4 °F 28% 29.97 in 10.0 mi West 4.6 mph 16.1 mph N/A   Clear
1:33 PM 82.4 °F 46.4 °F 28% 29.97 in 10.0 mi West 8.1 mph 19.6 mph N/A   Clear
1:52 PM 82.4 °F 44.6 °F 26% 29.98 in 10.0 mi West 10.4 mph 18.4 mph N/A   Clear
2:12 PM 82.4 °F 42.8 °F 25% 29.97 in 10.0 mi WNW 15.0 mph 19.6 mph N/A   Clear
2:33 PM 84.2 °F 44.6 °F 25% 29.97 in 10.0 mi WNW 11.5 mph 23.0 mph N/A   Clear
2:52 PM 82.4 °F 42.8 °F 25% 29.97 in 10.0 mi WNW 13.8 mph 21.9 mph N/A   Clear
3:12 PM 84.2 °F 42.8 °F 23% 29.96 in 10.0 mi WNW 12.7 mph 20.7 mph N/A   Clear
3:33 PM 84.2 °F 44.6 °F 25% 29.96 in 10.0 mi West 9.2 mph 18.4 mph N/A   Clear
3:52 PM 84.2 °F 42.8 °F 23% 29.96 in 10.0 mi West 8.1 mph 17.3 mph N/A   Clear
4:12 PM 84.2 °F 42.8 °F 23% 29.95 in 10.0 mi West 12.7 mph 17.3 mph N/A   Clear
4:33 PM 84.2 °F 44.6 °F 25% 29.95 in 10.0 mi West 12.7 mph - N/A   Clear
4:52 PM 82.4 °F 44.6 °F 26% 29.94 in 10.0 mi WSW 15.0 mph - N/A   Clear
5:12 PM 82.4 °F 44.6 °F 26% 29.94 in 10.0 mi WSW 13.8 mph 18.4 mph N/A   Clear
5:33 PM 82.4 °F 42.8 °F 25% 29.94 in 10.0 mi West 15.0 mph - N/A   Clear
5:52 PM 80.6 °F 48.2 °F 32% 29.94 in 10.0 mi WSW 12.7 mph - N/A   Clear
6:12 PM 80.6 °F 48.2 °F 32% 29.93 in 10.0 mi WSW 13.8 mph 19.6 mph N/A   Clear
6:33 PM 80.6 °F 50.0 °F 34% 29.93 in 10.0 mi WSW 13.8 mph 23.0 mph N/A   Clear
6:52 PM 80.6 °F 50.0 °F 34% 29.92 in 10.0 mi WSW 15.0 mph - N/A   Clear
7:12 PM 80.6 °F 48.2 °F 32% 29.92 in 10.0 mi WSW 15.0 mph - N/A   Clear
7:32 PM 78.8 °F 48.2 °F 34% 29.92 in 10.0 mi WSW 10.4 mph - N/A   Clear
7:52 PM 78.8 °F 50.0 °F 36% 29.92 in 10.0 mi WSW 9.2 mph - N/A   Clear
8:13 PM 77.0 °F 51.8 °F 41% 29.94 in 10.0 mi WSW 5.8 mph - N/A   Clear
8:32 PM 75.2 °F 51.8 °F 44% 29.93 in 10.0 mi SW 6.9 mph - N/A   Clear
8:52 PM 73.4 °F 51.8 °F 47% 29.94 in 10.0 mi SW 6.9 mph - N/A   Clear
9:13 PM 73.4 °F 51.8 °F 47% 29.95 in 10.0 mi SW 5.8 mph - N/A   Clear
9:32 PM 71.6 °F 53.6 °F 53% 29.95 in 10.0 mi WSW 4.6 mph - N/A   Clear
9:52 PM 69.8 °F 53.6 °F 56% 29.95 in 10.0 mi WSW 6.9 mph - N/A   Clear
10:13 PM 69.8 °F 51.8 °F 53% 29.94 in 10.0 mi WSW 8.1 mph - N/A   Clear
10:32 PM 69.8 °F 51.8 °F 53% 29.94 in 10.0 mi WSW 4.6 mph - N/A   Clear
10:52 PM 71.6 °F 51.8 °F 50% 29.95 in 10.0 mi WSW 8.1 mph - N/A   Clear
11:13 PM 69.8 °F 51.8 °F 53% 29.96 in 10.0 mi WSW 9.2 mph - N/A   Clear
11:32 PM 69.8 °F 51.8 °F 53% 29.96 in 10.0 mi SW 9.2 mph - N/A   Clear
11:52 PM 69.8 °F 51.8 °F 53% 29.97 in 10.0 mi SW 10.4 mph - N/A   Clear